sensor_id;sensor_type;location;lat;lon;timestamp;P1;durP1;ratioP1;P2;durP2;ratioP2
20531;SDS011;10424;52.102;8.084;2023-04-19T00:00:46;10.55;;;6.07;;
20531;SDS011;10424;52.102;8.084;2023-04-19T00:03:14;8.70;;;5.90;;
20531;SDS011;10424;52.102;8.084;2023-04-19T00:05:42;10.13;;;5.90;;
20531;SDS011;10424;52.102;8.084;2023-04-19T00:08:09;9.75;;;5.72;;
20531;SDS011;10424;52.102;8.084;2023-04-19T00:10:38;9.00;;;5.72;;
20531;SDS011;10424;52.102;8.084;2023-04-19T00:13:05;10.85;;;5.93;;
20531;SDS011;10424;52.102;8.084;2023-04-19T00:15:32;8.63;;;5.43;;
20531;SDS011;10424;52.102;8.084;2023-04-19T00:18:00;8.85;;;5.68;;
20531;SDS011;10424;52.102;8.084;2023-04-19T00:20:28;8.60;;;4.85;;
20531;SDS011;10424;52.102;8.084;2023-04-19T00:22:55;9.02;;;6.00;;
20531;SDS011;10424;52.102;8.084;2023-04-19T00:25:23;7.90;;;5.70;;
20531;SDS011;10424;52.102;8.084;2023-04-19T00:27:51;9.30;;;5.78;;
20531;SDS011;10424;52.102;8.084;2023-04-19T00:30:19;8.93;;;5.60;;
20531;SDS011;10424;52.102;8.084;2023-04-19T00:32:46;8.70;;;5.50;;
20531;SDS011;10424;52.102;8.084;2023-04-19T00:35:13;9.15;;;5.90;;
20531;SDS011;10424;52.102;8.084;2023-04-19T00:37:40;9.63;;;5.80;;
20531;SDS011;10424;52.102;8.084;2023-04-19T00:40:08;8.60;;;5.70;;
20531;SDS011;10424;52.102;8.084;2023-04-19T00:42:36;10.98;;;5.82;;
20531;SDS011;10424;52.102;8.084;2023-04-19T00:45:05;11.23;;;5.85;;
20531;SDS011;10424;52.102;8.084;2023-04-19T00:47:33;8.35;;;5.53;;
20531;SDS011;10424;52.102;8.084;2023-04-19T00:50:00;10.45;;;5.65;;
20531;SDS011;10424;52.102;8.084;2023-04-19T00:52:28;8.38;;;5.38;;
20531;SDS011;10424;52.102;8.084;2023-04-19T00:54:55;10.20;;;5.93;;
20531;SDS011;10424;52.102;8.084;2023-04-19T00:57:24;9.95;;;5.78;;
20531;SDS011;10424;52.102;8.084;2023-04-19T00:59:52;9.43;;;6.20;;
20531;SDS011;10424;52.102;8.084;2023-04-19T01:02:21;9.73;;;6.03;;
20531;SDS011;10424;52.102;8.084;2023-04-19T01:04:49;10.65;;;6.13;;
20531;SDS011;10424;52.102;8.084;2023-04-19T01:07:16;11.02;;;6.05;;
20531;SDS011;10424;52.102;8.084;2023-04-19T01:09:44;9.75;;;6.05;;
20531;SDS011;10424;52.102;8.084;2023-04-19T01:12:11;9.95;;;6.03;;
20531;SDS011;10424;52.102;8.084;2023-04-19T01:14:39;12.15;;;6.28;;
20531;SDS011;10424;52.102;8.084;2023-04-19T01:17:06;9.43;;;6.15;;
20531;SDS011;10424;52.102;8.084;2023-04-19T01:19:35;8.77;;;6.10;;
20531;SDS011;10424;52.102;8.084;2023-04-19T01:22:03;11.38;;;6.43;;
20531;SDS011;10424;52.102;8.084;2023-04-19T01:24:32;10.57;;;6.40;;
20531;SDS011;10424;52.102;8.084;2023-04-19T01:27:00;11.40;;;6.53;;
20531;SDS011;10424;52.102;8.084;2023-04-19T01:29:27;12.15;;;6.65;;
20531;SDS011;10424;52.102;8.084;2023-04-19T01:31:54;9.82;;;6.43;;
20531;SDS011;10424;52.102;8.084;2023-04-19T01:34:22;12.35;;;6.38;;
20531;SDS011;10424;52.102;8.084;2023-04-19T01:36:49;10.98;;;6.18;;
20531;SDS011;10424;52.102;8.084;2023-04-19T01:39:16;10.68;;;6.30;;
20531;SDS011;10424;52.102;8.084;2023-04-19T01:41:45;13.60;;;7.05;;
20531;SDS011;10424;52.102;8.084;2023-04-19T01:44:12;12.30;;;6.85;;
20531;SDS011;10424;52.102;8.084;2023-04-19T01:46:39;12.60;;;7.07;;
20531;SDS011;10424;52.102;8.084;2023-04-19T01:49:07;10.57;;;6.50;;
20531;SDS011;10424;52.102;8.084;2023-04-19T01:51:35;12.43;;;7.03;;
20531;SDS011;10424;52.102;8.084;2023-04-19T01:54:02;11.98;;;6.63;;
20531;SDS011;10424;52.102;8.084;2023-04-19T01:56:29;10.73;;;6.72;;
20531;SDS011;10424;52.102;8.084;2023-04-19T01:58:58;12.82;;;6.72;;
20531;SDS011;10424;52.102;8.084;2023-04-19T02:01:25;10.77;;;6.55;;
20531;SDS011;10424;52.102;8.084;2023-04-19T02:03:53;13.55;;;6.63;;
20531;SDS011;10424;52.102;8.084;2023-04-19T02:06:20;10.63;;;6.43;;
20531;SDS011;10424;52.102;8.084;2023-04-19T02:08:47;9.45;;;6.20;;
20531;SDS011;10424;52.102;8.084;2023-04-19T02:11:14;10.95;;;6.50;;
20531;SDS011;10424;52.102;8.084;2023-04-19T02:13:42;12.23;;;6.75;;
20531;SDS011;10424;52.102;8.084;2023-04-19T02:16:10;10.40;;;6.07;;
20531;SDS011;10424;52.102;8.084;2023-04-19T02:18:38;14.57;;;6.72;;
20531;SDS011;10424;52.102;8.084;2023-04-19T02:21:06;12.73;;;6.43;;
20531;SDS011;10424;52.102;8.084;2023-04-19T02:23:33;9.93;;;6.30;;
20531;SDS011;10424;52.102;8.084;2023-04-19T02:26:00;12.00;;;5.95;;
20531;SDS011;10424;52.102;8.084;2023-04-19T02:28:28;10.43;;;6.10;;
20531;SDS011;10424;52.102;8.084;2023-04-19T02:30:55;9.07;;;5.82;;
20531;SDS011;10424;52.102;8.084;2023-04-19T02:33:24;9.05;;;5.90;;
20531;SDS011;10424;52.102;8.084;2023-04-19T02:35:52;11.00;;;6.05;;
20531;SDS011;10424;52.102;8.084;2023-04-19T02:38:20;9.23;;;5.68;;
20531;SDS011;10424;52.102;8.084;2023-04-19T02:40:47;10.52;;;5.95;;
20531;SDS011;10424;52.102;8.084;2023-04-19T02:43:14;10.57;;;5.45;;
20531;SDS011;10424;52.102;8.084;2023-04-19T02:45:41;9.68;;;5.82;;
20531;SDS011;10424;52.102;8.084;2023-04-19T02:48:09;8.98;;;5.38;;
20531;SDS011;10424;52.102;8.084;2023-04-19T02:50:37;10.07;;;5.43;;
20531;SDS011;10424;52.102;8.084;2023-04-19T02:53:05;10.25;;;5.95;;
20531;SDS011;10424;52.102;8.084;2023-04-19T02:55:32;11.60;;;5.90;;
20531;SDS011;10424;52.102;8.084;2023-04-19T02:57:59;10.02;;;5.95;;
20531;SDS011;10424;52.102;8.084;2023-04-19T03:00:26;10.20;;;6.25;;
20531;SDS011;10424;52.102;8.084;2023-04-19T03:02:54;13.88;;;6.40;;
20531;SDS011;10424;52.102;8.084;2023-04-19T03:05:21;10.68;;;5.28;;
20531;SDS011;10424;52.102;8.084;2023-04-19T03:07:50;9.95;;;5.82;;
20531;SDS011;10424;52.102;8.084;2023-04-19T03:10:17;10.18;;;6.03;;
20531;SDS011;10424;52.102;8.084;2023-04-19T03:12:44;10.05;;;5.95;;
20531;SDS011;10424;52.102;8.084;2023-04-19T03:15:11;12.70;;;6.18;;
20531;SDS011;10424;52.102;8.084;2023-04-19T03:17:39;10.95;;;5.88;;
20531;SDS011;10424;52.102;8.084;2023-04-19T03:20:06;11.73;;;5.40;;
20531;SDS011;10424;52.102;8.084;2023-04-19T03:22:36;11.30;;;6.20;;
20531;SDS011;10424;52.102;8.084;2023-04-19T03:25:05;8.23;;;5.43;;
20531;SDS011;10424;52.102;8.084;2023-04-19T03:27:33;10.15;;;5.32;;
20531;SDS011;10424;52.102;8.084;2023-04-19T03:30:01;10.93;;;5.38;;
20531;SDS011;10424;52.102;8.084;2023-04-19T03:32:29;8.75;;;5.20;;
20531;SDS011;10424;52.102;8.084;2023-04-19T03:34:57;9.00;;;5.22;;
20531;SDS011;10424;52.102;8.084;2023-04-19T03:37:24;9.88;;;5.70;;
20531;SDS011;10424;52.102;8.084;2023-04-19T03:39:51;9.52;;;5.80;;
20531;SDS011;10424;52.102;8.084;2023-04-19T03:42:20;10.32;;;5.57;;
20531;SDS011;10424;52.102;8.084;2023-04-19T03:44:47;15.77;;;5.30;;
20531;SDS011;10424;52.102;8.084;2023-04-19T03:47:14;10.77;;;5.47;;
20531;SDS011;10424;52.102;8.084;2023-04-19T03:49:41;12.13;;;5.72;;
20531;SDS011;10424;52.102;8.084;2023-04-19T03:52:09;11.55;;;5.30;;
20531;SDS011;10424;52.102;8.084;2023-04-19T03:54:36;8.73;;;5.53;;
20531;SDS011;10424;52.102;8.084;2023-04-19T03:57:03;9.20;;;5.10;;
20531;SDS011;10424;52.102;8.084;2023-04-19T03:59:32;8.95;;;5.10;;
20531;SDS011;10424;52.102;8.084;2023-04-19T04:02:00;9.05;;;5.00;;
20531;SDS011;10424;52.102;8.084;2023-04-19T04:04:28;7.60;;;4.95;;
20531;SDS011;10424;52.102;8.084;2023-04-19T04:06:55;9.35;;;4.72;;
20531;SDS011;10424;52.102;8.084;2023-04-19T04:09:22;7.60;;;4.80;;
20531;SDS011;10424;52.102;8.084;2023-04-19T04:11:49;8.60;;;4.15;;
20531;SDS011;10424;52.102;8.084;2023-04-19T04:14:17;8.02;;;4.25;;
20531;SDS011;10424;52.102;8.084;2023-04-19T04:16:45;6.72;;;4.03;;
20531;SDS011;10424;52.102;8.084;2023-04-19T04:19:13;5.90;;;3.80;;
20531;SDS011;10424;52.102;8.084;2023-04-19T04:21:40;8.00;;;3.95;;
20531;SDS011;10424;52.102;8.084;2023-04-19T04:24:07;7.25;;;4.28;;
20531;SDS011;10424;52.102;8.084;2023-04-19T04:26:35;7.30;;;3.83;;
20531;SDS011;10424;52.102;8.084;2023-04-19T04:29:03;7.25;;;3.63;;
20531;SDS011;10424;52.102;8.084;2023-04-19T04:31:30;7.65;;;3.67;;
20531;SDS011;10424;52.102;8.084;2023-04-19T04:34:01;9.23;;;3.80;;
20531;SDS011;10424;52.102;8.084;2023-04-19T04:36:28;7.47;;;3.60;;
20531;SDS011;10424;52.102;8.084;2023-04-19T04:38:55;7.68;;;3.90;;
20531;SDS011;10424;52.102;8.084;2023-04-19T04:41:25;8.38;;;3.65;;
20531;SDS011;10424;52.102;8.084;2023-04-19T04:43:55;7.88;;;3.55;;
20531;SDS011;10424;52.102;8.084;2023-04-19T04:46:24;6.22;;;3.80;;
20531;SDS011;10424;52.102;8.084;2023-04-19T04:48:51;6.43;;;4.10;;
20531;SDS011;10424;52.102;8.084;2023-04-19T04:51:20;6.15;;;4.00;;
20531;SDS011;10424;52.102;8.084;2023-04-19T04:53:47;8.38;;;4.15;;
20531;SDS011;10424;52.102;8.084;2023-04-19T04:56:14;8.63;;;4.30;;
20531;SDS011;10424;52.102;8.084;2023-04-19T04:58:42;6.57;;;3.55;;
20531;SDS011;10424;52.102;8.084;2023-04-19T05:01:09;8.68;;;3.70;;
20531;SDS011;10424;52.102;8.084;2023-04-19T05:03:36;8.45;;;4.13;;
20531;SDS011;10424;52.102;8.084;2023-04-19T05:06:04;8.02;;;3.95;;
20531;SDS011;10424;52.102;8.084;2023-04-19T05:08:32;6.90;;;4.00;;
20531;SDS011;10424;52.102;8.084;2023-04-19T05:11:00;9.90;;;4.60;;
20531;SDS011;10424;52.102;8.084;2023-04-19T05:13:27;6.65;;;3.50;;
20531;SDS011;10424;52.102;8.084;2023-04-19T05:15:54;6.33;;;3.93;;
20531;SDS011;10424;52.102;8.084;2023-04-19T05:18:22;8.20;;;4.13;;
20531;SDS011;10424;52.102;8.084;2023-04-19T05:20:49;7.90;;;3.88;;
20531;SDS011;10424;52.102;8.084;2023-04-19T05:23:16;7.78;;;3.75;;
20531;SDS011;10424;52.102;8.084;2023-04-19T05:25:45;9.50;;;3.67;;
20531;SDS011;10424;52.102;8.084;2023-04-19T05:28:12;7.35;;;3.97;;
20531;SDS011;10424;52.102;8.084;2023-04-19T05:30:40;7.78;;;3.92;;
20531;SDS011;10424;52.102;8.084;2023-04-19T05:33:07;7.72;;;3.92;;
20531;SDS011;10424;52.102;8.084;2023-04-19T05:35:34;7.93;;;3.80;;
20531;SDS011;10424;52.102;8.084;2023-04-19T05:38:01;6.57;;;4.10;;
20531;SDS011;10424;52.102;8.084;2023-04-19T05:40:28;7.07;;;3.80;;
20531;SDS011;10424;52.102;8.084;2023-04-19T05:42:57;6.00;;;3.70;;
20531;SDS011;10424;52.102;8.084;2023-04-19T05:45:24;8.00;;;3.60;;
20531;SDS011;10424;52.102;8.084;2023-04-19T05:47:52;12.15;;;3.80;;
20531;SDS011;10424;52.102;8.084;2023-04-19T05:50:19;7.28;;;3.50;;
20531;SDS011;10424;52.102;8.084;2023-04-19T05:52:46;8.18;;;3.60;;
20531;SDS011;10424;52.102;8.084;2023-04-19T05:55:14;5.90;;;3.53;;
20531;SDS011;10424;52.102;8.084;2023-04-19T05:57:42;5.97;;;3.60;;
20531;SDS011;10424;52.102;8.084;2023-04-19T06:00:11;7.45;;;3.45;;
20531;SDS011;10424;52.102;8.084;2023-04-19T06:02:38;6.05;;;3.45;;
20531;SDS011;10424;52.102;8.084;2023-04-19T06:05:06;8.65;;;3.80;;
20531;SDS011;10424;52.102;8.084;2023-04-19T06:07:33;6.28;;;3.28;;
20531;SDS011;10424;52.102;8.084;2023-04-19T06:10:01;7.35;;;3.60;;
20531;SDS011;10424;52.102;8.084;2023-04-19T06:12:28;4.95;;;2.97;;
20531;SDS011;10424;52.102;8.084;2023-04-19T06:14:55;6.60;;;3.58;;
20531;SDS011;10424;52.102;8.084;2023-04-19T06:17:24;4.40;;;3.15;;
20531;SDS011;10424;52.102;8.084;2023-04-19T06:19:51;5.57;;;3.30;;
20531;SDS011;10424;52.102;8.084;2023-04-19T06:22:19;6.53;;;3.25;;
20531;SDS011;10424;52.102;8.084;2023-04-19T06:24:46;7.50;;;3.28;;
20531;SDS011;10424;52.102;8.084;2023-04-19T06:27:14;4.63;;;3.15;;
20531;SDS011;10424;52.102;8.084;2023-04-19T06:29:41;6.10;;;3.35;;
20531;SDS011;10424;52.102;8.084;2023-04-19T06:32:09;5.65;;;2.85;;
20531;SDS011;10424;52.102;8.084;2023-04-19T06:34:38;5.60;;;2.80;;
20531;SDS011;10424;52.102;8.084;2023-04-19T06:37:05;6.85;;;3.17;;
20531;SDS011;10424;52.102;8.084;2023-04-19T06:39:33;5.15;;;2.80;;
20531;SDS011;10424;52.102;8.084;2023-04-19T06:42:00;4.78;;;2.70;;
20531;SDS011;10424;52.102;8.084;2023-04-19T06:44:28;5.28;;;2.80;;
20531;SDS011;10424;52.102;8.084;2023-04-19T06:46:55;5.78;;;2.72;;
20531;SDS011;10424;52.102;8.084;2023-04-19T06:49:22;5.80;;;2.58;;
20531;SDS011;10424;52.102;8.084;2023-04-19T06:51:51;3.38;;;2.60;;
20531;SDS011;10424;52.102;8.084;2023-04-19T06:54:18;4.93;;;2.50;;
20531;SDS011;10424;52.102;8.084;2023-04-19T06:56:46;3.08;;;2.28;;
20531;SDS011;10424;52.102;8.084;2023-04-19T06:59:14;4.03;;;2.53;;
20531;SDS011;10424;52.102;8.084;2023-04-19T07:01:42;6.05;;;2.58;;
20531;SDS011;10424;52.102;8.084;2023-04-19T07:04:09;3.80;;;2.50;;
20531;SDS011;10424;52.102;8.084;2023-04-19T07:06:37;3.85;;;2.22;;
20531;SDS011;10424;52.102;8.084;2023-04-19T07:09:06;4.07;;;2.65;;
20531;SDS011;10424;52.102;8.084;2023-04-19T07:11:33;3.58;;;2.40;;
20531;SDS011;10424;52.102;8.084;2023-04-19T07:14:01;3.88;;;2.15;;
20531;SDS011;10424;52.102;8.084;2023-04-19T07:16:28;5.35;;;2.47;;
20531;SDS011;10424;52.102;8.084;2023-04-19T07:18:55;6.35;;;2.50;;
20531;SDS011;10424;52.102;8.084;2023-04-19T07:21:23;3.88;;;2.28;;
20531;SDS011;10424;52.102;8.084;2023-04-19T07:23:51;5.63;;;2.30;;
20531;SDS011;10424;52.102;8.084;2023-04-19T07:26:19;4.28;;;2.30;;
20531;SDS011;10424;52.102;8.084;2023-04-19T07:28:46;4.53;;;2.33;;
20531;SDS011;10424;52.102;8.084;2023-04-19T07:31:14;3.25;;;2.20;;
20531;SDS011;10424;52.102;8.084;2023-04-19T07:33:41;2.90;;;2.08;;
20531;SDS011;10424;52.102;8.084;2023-04-19T07:36:09;4.47;;;2.33;;
20531;SDS011;10424;52.102;8.084;2023-04-19T07:38:36;5.20;;;2.30;;
20531;SDS011;10424;52.102;8.084;2023-04-19T07:41:03;3.25;;;2.30;;
20531;SDS011;10424;52.102;8.084;2023-04-19T07:43:32;4.57;;;2.30;;
20531;SDS011;10424;52.102;8.084;2023-04-19T07:46:00;6.00;;;2.38;;
20531;SDS011;10424;52.102;8.084;2023-04-19T07:48:28;3.20;;;2.35;;
20531;SDS011;10424;52.102;8.084;2023-04-19T07:50:55;6.07;;;2.10;;
20531;SDS011;10424;52.102;8.084;2023-04-19T07:53:22;3.28;;;2.40;;
20531;SDS011;10424;52.102;8.084;2023-04-19T07:55:49;3.78;;;2.30;;
20531;SDS011;10424;52.102;8.084;2023-04-19T07:58:17;2.97;;;2.40;;
20531;SDS011;10424;52.102;8.084;2023-04-19T08:00:45;4.70;;;2.10;;
20531;SDS011;10424;52.102;8.084;2023-04-19T08:03:13;4.55;;;2.03;;
20531;SDS011;10424;52.102;8.084;2023-04-19T08:05:40;5.68;;;2.50;;
20531;SDS011;10424;52.102;8.084;2023-04-19T08:08:07;3.10;;;2.40;;
20531;SDS011;10424;52.102;8.084;2023-04-19T08:10:34;4.05;;;2.10;;
20531;SDS011;10424;52.102;8.084;2023-04-19T08:13:02;4.25;;;2.40;;
20531;SDS011;10424;52.102;8.084;2023-04-19T08:15:29;6.47;;;2.30;;
20531;SDS011;10424;52.102;8.084;2023-04-19T08:17:58;5.22;;;2.58;;
20531;SDS011;10424;52.102;8.084;2023-04-19T08:20:26;5.40;;;2.30;;
20531;SDS011;10424;52.102;8.084;2023-04-19T08:22:53;5.47;;;2.13;;
20531;SDS011;10424;52.102;8.084;2023-04-19T08:25:20;6.00;;;2.50;;
20531;SDS011;10424;52.102;8.084;2023-04-19T08:27:50;4.68;;;2.30;;
20531;SDS011;10424;52.102;8.084;2023-04-19T08:30:18;5.55;;;2.60;;
20531;SDS011;10424;52.102;8.084;2023-04-19T08:32:45;3.95;;;2.50;;
20531;SDS011;10424;52.102;8.084;2023-04-19T08:35:14;4.50;;;2.42;;
20531;SDS011;10424;52.102;8.084;2023-04-19T08:37:41;3.17;;;2.40;;
20531;SDS011;10424;52.102;8.084;2023-04-19T08:40:09;4.50;;;2.60;;
20531;SDS011;10424;52.102;8.084;2023-04-19T08:42:36;3.58;;;2.33;;
20531;SDS011;10424;52.102;8.084;2023-04-19T08:45:03;4.00;;;2.47;;
20531;SDS011;10424;52.102;8.084;2023-04-19T08:47:32;3.63;;;2.47;;
20531;SDS011;10424;52.102;8.084;2023-04-19T08:50:00;4.35;;;2.90;;
20531;SDS011;10424;52.102;8.084;2023-04-19T08:52:29;5.00;;;2.45;;
20531;SDS011;10424;52.102;8.084;2023-04-19T08:55:00;4.20;;;2.63;;
20531;SDS011;10424;52.102;8.084;2023-04-19T08:57:28;3.80;;;2.47;;
20531;SDS011;10424;52.102;8.084;2023-04-19T08:59:56;3.75;;;2.58;;
20531;SDS011;10424;52.102;8.084;2023-04-19T09:02:23;3.85;;;2.60;;
20531;SDS011;10424;52.102;8.084;2023-04-19T09:04:50;4.95;;;2.58;;
20531;SDS011;10424;52.102;8.084;2023-04-19T09:07:24;3.95;;;2.40;;
20531;SDS011;10424;52.102;8.084;2023-04-19T09:10:04;6.47;;;3.10;;
20531;SDS011;10424;52.102;8.084;2023-04-19T09:12:32;4.82;;;2.63;;
20531;SDS011;10424;52.102;8.084;2023-04-19T09:15:00;5.63;;;2.47;;
20531;SDS011;10424;52.102;8.084;2023-04-19T09:17:28;6.57;;;2.85;;
20531;SDS011;10424;52.102;8.084;2023-04-19T09:19:55;5.22;;;2.80;;
20531;SDS011;10424;52.102;8.084;2023-04-19T09:22:23;6.97;;;2.80;;
20531;SDS011;10424;52.102;8.084;2023-04-19T09:24:51;3.67;;;2.67;;
20531;SDS011;10424;52.102;8.084;2023-04-19T09:27:24;4.43;;;2.70;;
20531;SDS011;10424;52.102;8.084;2023-04-19T09:29:51;4.20;;;2.55;;
20531;SDS011;10424;52.102;8.084;2023-04-19T09:32:19;5.47;;;2.55;;
20531;SDS011;10424;52.102;8.084;2023-04-19T09:34:50;6.15;;;3.10;;
20531;SDS011;10424;52.102;8.084;2023-04-19T09:37:18;3.55;;;2.60;;
20531;SDS011;10424;52.102;8.084;2023-04-19T09:39:45;4.88;;;2.97;;
20531;SDS011;10424;52.102;8.084;2023-04-19T09:42:12;4.13;;;2.60;;
20531;SDS011;10424;52.102;8.084;2023-04-19T09:44:43;4.72;;;2.47;;
20531;SDS011;10424;52.102;8.084;2023-04-19T09:47:21;4.75;;;2.70;;
20531;SDS011;10424;52.102;8.084;2023-04-19T09:50:02;4.93;;;2.60;;
20531;SDS011;10424;52.102;8.084;2023-04-19T09:52:30;5.43;;;2.75;;
20531;SDS011;10424;52.102;8.084;2023-04-19T09:54:58;3.95;;;2.50;;
20531;SDS011;10424;52.102;8.084;2023-04-19T09:57:28;3.72;;;2.40;;
20531;SDS011;10424;52.102;8.084;2023-04-19T09:59:56;5.97;;;2.53;;
20531;SDS011;10424;52.102;8.084;2023-04-19T10:02:24;12.23;;;3.20;;
20531;SDS011;10424;52.102;8.084;2023-04-19T10:04:52;5.40;;;2.60;;
20531;SDS011;10424;52.102;8.084;2023-04-19T10:07:20;5.95;;;2.60;;
20531;SDS011;10424;52.102;8.084;2023-04-19T10:09:47;6.00;;;2.70;;
20531;SDS011;10424;52.102;8.084;2023-04-19T10:12:15;5.95;;;2.65;;
20531;SDS011;10424;52.102;8.084;2023-04-19T10:14:43;3.40;;;2.50;;
20531;SDS011;10424;52.102;8.084;2023-04-19T10:17:12;5.22;;;2.58;;
20531;SDS011;10424;52.102;8.084;2023-04-19T10:19:39;6.05;;;2.90;;
20531;SDS011;10424;52.102;8.084;2023-04-19T10:22:07;3.17;;;2.50;;
20531;SDS011;10424;52.102;8.084;2023-04-19T10:24:35;4.75;;;2.35;;
20531;SDS011;10424;52.102;8.084;2023-04-19T10:27:09;5.90;;;2.85;;
20531;SDS011;10424;52.102;8.084;2023-04-19T10:32:19;4.88;;;2.80;;
20531;SDS011;10424;52.102;8.084;2023-04-19T10:34:48;5.82;;;2.88;;
20531;SDS011;10424;52.102;8.084;2023-04-19T10:37:20;6.22;;;2.83;;
20531;SDS011;10424;52.102;8.084;2023-04-19T10:39:48;7.15;;;2.80;;
20531;SDS011;10424;52.102;8.084;2023-04-19T10:42:15;5.82;;;2.80;;
20531;SDS011;10424;52.102;8.084;2023-04-19T10:44:49;3.33;;;2.60;;
20531;SDS011;10424;52.102;8.084;2023-04-19T10:47:41;5.32;;;2.65;;
20531;SDS011;10424;52.102;8.084;2023-04-19T10:50:09;6.80;;;2.53;;
20531;SDS011;10424;52.102;8.084;2023-04-19T10:59:35;8.32;;;2.42;;
20531;SDS011;10424;52.102;8.084;2023-04-19T11:02:05;3.03;;;2.35;;
20531;SDS011;10424;52.102;8.084;2023-04-19T11:04:59;4.57;;;2.58;;
20531;SDS011;10424;52.102;8.084;2023-04-19T11:07:26;5.80;;;2.42;;
20531;SDS011;10424;52.102;8.084;2023-04-19T11:09:53;4.47;;;2.60;;
20531;SDS011;10424;52.102;8.084;2023-04-19T11:12:21;5.15;;;2.67;;
20531;SDS011;10424;52.102;8.084;2023-04-19T11:14:51;4.78;;;2.70;;
20531;SDS011;10424;52.102;8.084;2023-04-19T11:17:19;3.55;;;2.50;;
20531;SDS011;10424;52.102;8.084;2023-04-19T11:19:53;6.90;;;2.88;;
20531;SDS011;10424;52.102;8.084;2023-04-19T11:22:24;5.35;;;2.65;;
20531;SDS011;10424;52.102;8.084;2023-04-19T11:24:51;3.78;;;2.47;;
20531;SDS011;10424;52.102;8.084;2023-04-19T11:27:19;5.90;;;2.35;;
20531;SDS011;10424;52.102;8.084;2023-04-19T11:29:47;3.22;;;2.40;;
20531;SDS011;10424;52.102;8.084;2023-04-19T11:32:16;3.58;;;2.20;;
20531;SDS011;10424;52.102;8.084;2023-04-19T11:34:44;4.68;;;2.30;;
20531;SDS011;10424;52.102;8.084;2023-04-19T11:37:12;3.95;;;2.17;;
20531;SDS011;10424;52.102;8.084;2023-04-19T11:39:48;7.28;;;2.55;;
20531;SDS011;10424;52.102;8.084;2023-04-19T11:42:16;3.97;;;2.50;;
20531;SDS011;10424;52.102;8.084;2023-04-19T11:44:47;3.03;;;2.28;;
20531;SDS011;10424;52.102;8.084;2023-04-19T11:47:16;4.05;;;2.38;;
20531;SDS011;10424;52.102;8.084;2023-04-19T11:49:43;4.85;;;2.92;;
20531;SDS011;10424;52.102;8.084;2023-04-19T11:52:11;6.28;;;2.50;;
20531;SDS011;10424;52.102;8.084;2023-04-19T11:54:38;8.45;;;2.55;;
20531;SDS011;10424;52.102;8.084;2023-04-19T11:57:07;4.18;;;2.10;;
20531;SDS011;10424;52.102;8.084;2023-04-19T11:59:35;3.72;;;2.40;;
20531;SDS011;10424;52.102;8.084;2023-04-19T12:02:06;5.80;;;2.10;;
20531;SDS011;10424;52.102;8.084;2023-04-19T12:04:35;5.90;;;2.28;;
20531;SDS011;10424;52.102;8.084;2023-04-19T12:07:03;11.85;;;3.00;;
20531;SDS011;10424;52.102;8.084;2023-04-19T12:09:32;21.02;;;3.65;;
20531;SDS011;10424;52.102;8.084;2023-04-19T12:12:00;2.92;;;2.30;;
20531;SDS011;10424;52.102;8.084;2023-04-19T12:14:27;4.18;;;2.50;;
20531;SDS011;10424;52.102;8.084;2023-04-19T12:17:02;5.10;;;2.70;;
20531;SDS011;10424;52.102;8.084;2023-04-19T12:19:33;5.45;;;2.47;;
20531;SDS011;10424;52.102;8.084;2023-04-19T12:22:07;4.38;;;2.85;;
20531;SDS011;10424;52.102;8.084;2023-04-19T12:24:35;5.47;;;2.35;;
20531;SDS011;10424;52.102;8.084;2023-04-19T12:27:03;29.88;;;4.60;;
20531;SDS011;10424;52.102;8.084;2023-04-19T12:29:30;5.38;;;2.45;;
20531;SDS011;10424;52.102;8.084;2023-04-19T12:31:58;3.90;;;2.35;;
20531;SDS011;10424;52.102;8.084;2023-04-19T12:34:25;3.90;;;2.25;;
20531;SDS011;10424;52.102;8.084;2023-04-19T12:36:52;10.35;;;2.65;;
20531;SDS011;10424;52.102;8.084;2023-04-19T12:39:21;7.50;;;2.40;;
20531;SDS011;10424;52.102;8.084;2023-04-19T12:41:48;5.85;;;3.72;;
20531;SDS011;10424;52.102;8.084;2023-04-19T12:44:15;7.78;;;2.65;;
20531;SDS011;10424;52.102;8.084;2023-04-19T12:46:43;6.75;;;2.80;;
20531;SDS011;10424;52.102;8.084;2023-04-19T12:49:10;3.20;;;2.42;;
20531;SDS011;10424;52.102;8.084;2023-04-19T12:51:37;4.25;;;2.67;;
20531;SDS011;10424;52.102;8.084;2023-04-19T12:54:06;2.90;;;2.40;;
20531;SDS011;10424;52.102;8.084;2023-04-19T12:56:35;4.07;;;2.40;;
20531;SDS011;10424;52.102;8.084;2023-04-19T12:59:02;6.40;;;2.50;;
20531;SDS011;10424;52.102;8.084;2023-04-19T13:01:30;4.03;;;2.47;;
20531;SDS011;10424;52.102;8.084;2023-04-19T13:03:58;2.55;;;2.17;;
20531;SDS011;10424;52.102;8.084;2023-04-19T13:06:25;4.65;;;2.17;;
20531;SDS011;10424;52.102;8.084;2023-04-19T13:08:52;3.95;;;2.20;;
20531;SDS011;10424;52.102;8.084;2023-04-19T13:11:20;5.45;;;2.15;;
20531;SDS011;10424;52.102;8.084;2023-04-19T13:13:52;5.40;;;1.90;;
20531;SDS011;10424;52.102;8.084;2023-04-19T13:16:19;2.65;;;1.92;;
20531;SDS011;10424;52.102;8.084;2023-04-19T13:18:47;4.18;;;2.00;;
20531;SDS011;10424;52.102;8.084;2023-04-19T13:21:15;6.53;;;2.00;;
20531;SDS011;10424;52.102;8.084;2023-04-19T13:23:42;4.60;;;1.80;;
20531;SDS011;10424;52.102;8.084;2023-04-19T13:26:10;4.00;;;1.70;;
20531;SDS011;10424;52.102;8.084;2023-04-19T13:28:37;3.42;;;1.92;;
20531;SDS011;10424;52.102;8.084;2023-04-19T13:31:06;3.03;;;1.83;;
20531;SDS011;10424;52.102;8.084;2023-04-19T13:33:33;4.68;;;1.90;;
20531;SDS011;10424;52.102;8.084;2023-04-19T13:36:00;5.15;;;1.77;;
20531;SDS011;10424;52.102;8.084;2023-04-19T13:38:28;5.47;;;1.85;;
20531;SDS011;10424;52.102;8.084;2023-04-19T13:40:55;5.15;;;1.80;;
20531;SDS011;10424;52.102;8.084;2023-04-19T13:43:22;5.28;;;1.90;;
20531;SDS011;10424;52.102;8.084;2023-04-19T13:45:49;5.50;;;2.05;;
20531;SDS011;10424;52.102;8.084;2023-04-19T13:48:18;3.42;;;1.90;;
20531;SDS011;10424;52.102;8.084;2023-04-19T13:50:46;2.05;;;1.77;;
20531;SDS011;10424;52.102;8.084;2023-04-19T13:53:13;3.85;;;1.95;;
20531;SDS011;10424;52.102;8.084;2023-04-19T13:55:41;4.25;;;2.08;;
20531;SDS011;10424;52.102;8.084;2023-04-19T13:58:08;5.25;;;1.80;;
20531;SDS011;10424;52.102;8.084;2023-04-19T14:00:35;5.47;;;1.90;;
20531;SDS011;10424;52.102;8.084;2023-04-19T14:03:03;7.97;;;1.98;;
20531;SDS011;10424;52.102;8.084;2023-04-19T14:05:32;5.63;;;1.65;;
20531;SDS011;10424;52.102;8.084;2023-04-19T14:08:00;2.85;;;1.80;;
20531;SDS011;10424;52.102;8.084;2023-04-19T14:10:27;4.68;;;2.10;;
20531;SDS011;10424;52.102;8.084;2023-04-19T14:12:54;3.67;;;1.73;;
20531;SDS011;10424;52.102;8.084;2023-04-19T14:15:22;2.95;;;1.70;;
20531;SDS011;10424;52.102;8.084;2023-04-19T14:17:49;4.63;;;1.80;;
20531;SDS011;10424;52.102;8.084;2023-04-19T14:20:17;3.15;;;1.80;;
20531;SDS011;10424;52.102;8.084;2023-04-19T14:22:45;5.55;;;1.80;;
20531;SDS011;10424;52.102;8.084;2023-04-19T14:25:12;5.53;;;1.92;;
20531;SDS011;10424;52.102;8.084;2023-04-19T14:27:41;3.88;;;1.98;;
20531;SDS011;10424;52.102;8.084;2023-04-19T14:30:09;4.28;;;1.90;;
20531;SDS011;10424;52.102;8.084;2023-04-19T14:32:36;2.97;;;1.85;;
20531;SDS011;10424;52.102;8.084;2023-04-19T14:35:04;5.15;;;2.00;;
20531;SDS011;10424;52.102;8.084;2023-04-19T14:37:32;6.15;;;2.10;;
20531;SDS011;10424;52.102;8.084;2023-04-19T14:40:01;4.20;;;2.05;;
20531;SDS011;10424;52.102;8.084;2023-04-19T14:42:28;5.05;;;2.00;;
20531;SDS011;10424;52.102;8.084;2023-04-19T14:44:56;5.97;;;2.20;;
20531;SDS011;10424;52.102;8.084;2023-04-19T14:47:23;7.95;;;1.95;;
20531;SDS011;10424;52.102;8.084;2023-04-19T14:49:51;5.35;;;2.33;;
20531;SDS011;10424;52.102;8.084;2023-04-19T14:52:18;5.53;;;2.28;;
20531;SDS011;10424;52.102;8.084;2023-04-19T14:54:45;6.55;;;2.30;;
20531;SDS011;10424;52.102;8.084;2023-04-19T14:57:14;4.90;;;2.17;;
20531;SDS011;10424;52.102;8.084;2023-04-19T14:59:41;5.88;;;2.20;;